sensor_id;sensor_type;location;lat;lon;timestamp;temperature;humidity
26304;DHT22;57113;48.680;8.890;2022-07-04T00:00:13;23.60;98.60
26304;DHT22;57113;48.680;8.890;2022-07-04T00:02:41;23.60;98.60
26304;DHT22;57113;48.680;8.890;2022-07-04T00:05:08;23.60;98.60
26304;DHT22;57113;48.680;8.890;2022-07-04T00:07:46;23.60;98.60
26304;DHT22;57113;48.680;8.890;2022-07-04T00:10:15;23.60;98.60
26304;DHT22;57113;48.680;8.890;2022-07-04T00:12:41;23.60;98.60
26304;DHT22;57113;48.680;8.890;2022-07-04T00:15:08;23.60;98.60
26304;DHT22;57113;48.680;8.890;2022-07-04T00:17:34;23.60;98.60
26304;DHT22;57113;48.680;8.890;2022-07-04T00:19:59;23.60;98.60
26304;DHT22;57113;48.680;8.890;2022-07-04T00:22:25;23.60;98.60
26304;DHT22;57113;48.680;8.890;2022-07-04T00:24:51;23.60;98.60
26304;DHT22;57113;48.680;8.890;2022-07-04T00:27:17;23.60;98.50
26304;DHT22;57113;48.680;8.890;2022-07-04T00:29:43;23.60;98.50
26304;DHT22;57113;48.680;8.890;2022-07-04T00:32:09;23.60;98.50
26304;DHT22;57113;48.680;8.890;2022-07-04T00:34:35;23.60;98.50
26304;DHT22;57113;48.680;8.890;2022-07-04T00:37:01;23.60;98.60
26304;DHT22;57113;48.680;8.890;2022-07-04T00:39:27;23.60;98.60
26304;DHT22;57113;48.680;8.890;2022-07-04T00:41:52;23.60;98.60
26304;DHT22;57113;48.680;8.890;2022-07-04T00:44:18;23.50;98.50
26304;DHT22;57113;48.680;8.890;2022-07-04T00:46:45;23.50;98.50
26304;DHT22;57113;48.680;8.890;2022-07-04T00:49:13;23.50;98.50
26304;DHT22;57113;48.680;8.890;2022-07-04T00:51:40;23.50;98.60
26304;DHT22;57113;48.680;8.890;2022-07-04T00:54:08;23.60;98.60
26304;DHT22;57113;48.680;8.890;2022-07-04T00:56:37;23.50;98.50
26304;DHT22;57113;48.680;8.890;2022-07-04T00:59:04;23.50;98.50
26304;DHT22;57113;48.680;8.890;2022-07-04T01:01:30;23.50;98.50
26304;DHT22;57113;48.680;8.890;2022-07-04T01:03:56;23.50;98.50
26304;DHT22;57113;48.680;8.890;2022-07-04T01:06:23;23.50;98.50
26304;DHT22;57113;48.680;8.890;2022-07-04T01:08:48;23.50;98.50
26304;DHT22;57113;48.680;8.890;2022-07-04T01:11:14;23.50;98.40
26304;DHT22;57113;48.680;8.890;2022-07-04T01:13:41;23.50;98.50
26304;DHT22;57113;48.680;8.890;2022-07-04T01:16:08;23.50;98.50
26304;DHT22;57113;48.680;8.890;2022-07-04T01:18:34;23.40;98.40
26304;DHT22;57113;48.680;8.890;2022-07-04T01:21:00;23.50;98.40
26304;DHT22;57113;48.680;8.890;2022-07-04T01:23:26;23.50;98.50
26304;DHT22;57113;48.680;8.890;2022-07-04T01:25:52;23.40;98.50
26304;DHT22;57113;48.680;8.890;2022-07-04T01:28:22;23.40;98.30
26304;DHT22;57113;48.680;8.890;2022-07-04T01:30:48;23.40;98.40
26304;DHT22;57113;48.680;8.890;2022-07-04T01:33:14;23.40;98.40
26304;DHT22;57113;48.680;8.890;2022-07-04T01:35:40;23.40;98.40
26304;DHT22;57113;48.680;8.890;2022-07-04T01:38:06;23.40;98.40
26304;DHT22;57113;48.680;8.890;2022-07-04T01:40:32;23.40;98.40
26304;DHT22;57113;48.680;8.890;2022-07-04T01:42:58;23.40;98.40
26304;DHT22;57113;48.680;8.890;2022-07-04T01:45:24;23.40;98.40
26304;DHT22;57113;48.680;8.890;2022-07-04T01:47:50;23.40;98.30
26304;DHT22;57113;48.680;8.890;2022-07-04T01:50:16;23.40;98.40
26304;DHT22;57113;48.680;8.890;2022-07-04T01:52:42;23.40;98.40
26304;DHT22;57113;48.680;8.890;2022-07-04T01:55:09;23.40;98.40
26304;DHT22;57113;48.680;8.890;2022-07-04T01:57:36;23.40;98.40
26304;DHT22;57113;48.680;8.890;2022-07-04T02:00:04;23.30;98.40
26304;DHT22;57113;48.680;8.890;2022-07-04T02:02:48;23.40;98.50
26304;DHT22;57113;48.680;8.890;2022-07-04T02:05:14;23.40;98.50
26304;DHT22;57113;48.680;8.890;2022-07-04T02:07:40;23.30;98.50
26304;DHT22;57113;48.680;8.890;2022-07-04T02:10:06;23.30;98.50
26304;DHT22;57113;48.680;8.890;2022-07-04T02:12:32;23.30;98.50
26304;DHT22;57113;48.680;8.890;2022-07-04T02:15:16;23.30;98.50
26304;DHT22;57113;48.680;8.890;2022-07-04T02:17:42;23.30;98.50
26304;DHT22;57113;48.680;8.890;2022-07-04T02:20:08;23.30;98.50
26304;DHT22;57113;48.680;8.890;2022-07-04T02:22:33;23.30;98.50
26304;DHT22;57113;48.680;8.890;2022-07-04T02:24:59;23.30;98.90
26304;DHT22;57113;48.680;8.890;2022-07-04T02:27:25;23.30;98.50
26304;DHT22;57113;48.680;8.890;2022-07-04T02:29:50;23.30;98.60
26304;DHT22;57113;48.680;8.890;2022-07-04T02:32:16;23.30;98.50
26304;DHT22;57113;48.680;8.890;2022-07-04T02:34:42;23.30;98.50
26304;DHT22;57113;48.680;8.890;2022-07-04T02:37:07;23.20;98.50
26304;DHT22;57113;48.680;8.890;2022-07-04T02:39:33;23.20;98.50
26304;DHT22;57113;48.680;8.890;2022-07-04T02:41:59;23.20;98.50
26304;DHT22;57113;48.680;8.890;2022-07-04T02:44:24;23.20;98.50
26304;DHT22;57113;48.680;8.890;2022-07-04T02:46:50;23.20;98.50
26304;DHT22;57113;48.680;8.890;2022-07-04T02:49:16;23.20;98.50
26304;DHT22;57113;48.680;8.890;2022-07-04T02:51:41;23.20;98.50
26304;DHT22;57113;48.680;8.890;2022-07-04T02:54:08;23.20;98.50
26304;DHT22;57113;48.680;8.890;2022-07-04T02:56:33;23.20;98.50
26304;DHT22;57113;48.680;8.890;2022-07-04T02:58:59;23.20;98.50
26304;DHT22;57113;48.680;8.890;2022-07-04T03:01:25;23.20;98.50
26304;DHT22;57113;48.680;8.890;2022-07-04T03:03:50;23.20;98.40
26304;DHT22;57113;48.680;8.890;2022-07-04T03:06:17;23.10;98.40
26304;DHT22;57113;48.680;8.890;2022-07-04T03:08:43;23.10;98.40
26304;DHT22;57113;48.680;8.890;2022-07-04T03:11:09;23.10;98.40
26304;DHT22;57113;48.680;8.890;2022-07-04T03:13:36;23.10;98.40
26304;DHT22;57113;48.680;8.890;2022-07-04T03:16:02;23.10;98.50
26304;DHT22;57113;48.680;8.890;2022-07-04T03:18:28;23.10;98.40
26304;DHT22;57113;48.680;8.890;2022-07-04T03:20:54;23.10;98.30
26304;DHT22;57113;48.680;8.890;2022-07-04T03:23:20;23.10;98.30
26304;DHT22;57113;48.680;8.890;2022-07-04T03:25:45;23.10;98.30
26304;DHT22;57113;48.680;8.890;2022-07-04T03:28:11;23.10;98.20
26304;DHT22;57113;48.680;8.890;2022-07-04T03:30:37;23.10;98.10
26304;DHT22;57113;48.680;8.890;2022-07-04T03:33:03;23.10;98.10
26304;DHT22;57113;48.680;8.890;2022-07-04T03:35:29;23.10;98.10
26304;DHT22;57113;48.680;8.890;2022-07-04T03:37:55;23.10;98.20
26304;DHT22;57113;48.680;8.890;2022-07-04T03:40:21;23.00;98.20
26304;DHT22;57113;48.680;8.890;2022-07-04T03:42:48;23.00;98.20
26304;DHT22;57113;48.680;8.890;2022-07-04T03:45:14;23.00;98.10
26304;DHT22;57113;48.680;8.890;2022-07-04T03:47:40;23.00;98.10
26304;DHT22;57113;48.680;8.890;2022-07-04T03:50:06;23.00;98.20
26304;DHT22;57113;48.680;8.890;2022-07-04T03:52:32;23.00;98.10
26304;DHT22;57113;48.680;8.890;2022-07-04T03:54:58;23.00;98.10
26304;DHT22;57113;48.680;8.890;2022-07-04T03:57:24;23.00;98.20
26304;DHT22;57113;48.680;8.890;2022-07-04T03:59:50;23.00;98.10
26304;DHT22;57113;48.680;8.890;2022-07-04T04:02:16;23.00;98.10
26304;DHT22;57113;48.680;8.890;2022-07-04T04:04:42;23.00;98.00
26304;DHT22;57113;48.680;8.890;2022-07-04T04:07:27;23.00;98.00
26304;DHT22;57113;48.680;8.890;2022-07-04T04:09:53;23.00;98.00
26304;DHT22;57113;48.680;8.890;2022-07-04T04:12:19;22.90;98.00
26304;DHT22;57113;48.680;8.890;2022-07-04T04:14:44;22.90;98.00
26304;DHT22;57113;48.680;8.890;2022-07-04T04:17:10;22.90;98.10
26304;DHT22;57113;48.680;8.890;2022-07-04T04:19:36;22.90;98.20
26304;DHT22;57113;48.680;8.890;2022-07-04T04:22:01;22.90;98.20
26304;DHT22;57113;48.680;8.890;2022-07-04T04:24:27;22.90;98.30
26304;DHT22;57113;48.680;8.890;2022-07-04T04:26:53;22.90;98.30
26304;DHT22;57113;48.680;8.890;2022-07-04T04:29:19;22.90;98.40
26304;DHT22;57113;48.680;8.890;2022-07-04T04:31:44;22.90;98.40
26304;DHT22;57113;48.680;8.890;2022-07-04T04:34:10;22.90;98.30
26304;DHT22;57113;48.680;8.890;2022-07-04T04:36:36;22.90;98.30
26304;DHT22;57113;48.680;8.890;2022-07-04T04:39:02;22.90;98.30
26304;DHT22;57113;48.680;8.890;2022-07-04T04:41:28;22.90;98.30
26304;DHT22;57113;48.680;8.890;2022-07-04T04:43:54;22.90;98.30
26304;DHT22;57113;48.680;8.890;2022-07-04T04:46:20;22.90;98.30
26304;DHT22;57113;48.680;8.890;2022-07-04T04:48:46;22.90;98.30
26304;DHT22;57113;48.680;8.890;2022-07-04T04:51:12;22.90;98.30
26304;DHT22;57113;48.680;8.890;2022-07-04T04:53:37;22.90;98.40
26304;DHT22;57113;48.680;8.890;2022-07-04T04:56:03;22.90;98.40
26304;DHT22;57113;48.680;8.890;2022-07-04T04:58:29;22.90;98.40
26304;DHT22;57113;48.680;8.890;2022-07-04T05:00:55;22.90;98.40
26304;DHT22;57113;48.680;8.890;2022-07-04T05:03:20;22.90;98.40
26304;DHT22;57113;48.680;8.890;2022-07-04T05:05:46;22.90;98.40
26304;DHT22;57113;48.680;8.890;2022-07-04T05:08:12;22.90;98.40
26304;DHT22;57113;48.680;8.890;2022-07-04T05:10:41;22.90;98.50
26304;DHT22;57113;48.680;8.890;2022-07-04T05:13:07;22.90;98.50
26304;DHT22;57113;48.680;8.890;2022-07-04T05:15:33;22.90;98.60
26304;DHT22;57113;48.680;8.890;2022-07-04T05:17:59;22.90;98.60
26304;DHT22;57113;48.680;8.890;2022-07-04T05:20:24;22.90;98.60
26304;DHT22;57113;48.680;8.890;2022-07-04T05:22:50;22.90;98.60
26304;DHT22;57113;48.680;8.890;2022-07-04T05:25:16;22.90;98.50
26304;DHT22;57113;48.680;8.890;2022-07-04T05:27:42;22.90;98.60
26304;DHT22;57113;48.680;8.890;2022-07-04T05:30:08;22.90;98.50
26304;DHT22;57113;48.680;8.890;2022-07-04T05:32:34;22.90;98.50
26304;DHT22;57113;48.680;8.890;2022-07-04T05:35:00;22.90;98.50
26304;DHT22;57113;48.680;8.890;2022-07-04T05:37:25;22.90;98.50
26304;DHT22;57113;48.680;8.890;2022-07-04T05:39:51;22.90;98.50
26304;DHT22;57113;48.680;8.890;2022-07-04T05:42:17;22.90;98.50
26304;DHT22;57113;48.680;8.890;2022-07-04T05:44:43;22.90;98.50
26304;DHT22;57113;48.680;8.890;2022-07-04T05:47:09;22.90;98.50
26304;DHT22;57113;48.680;8.890;2022-07-04T05:49:34;22.90;98.40
26304;DHT22;57113;48.680;8.890;2022-07-04T05:52:00;22.90;98.40
26304;DHT22;57113;48.680;8.890;2022-07-04T05:54:27;23.00;98.40
26304;DHT22;57113;48.680;8.890;2022-07-04T05:56:53;23.00;98.30
26304;DHT22;57113;48.680;8.890;2022-07-04T05:59:18;23.00;98.30
26304;DHT22;57113;48.680;8.890;2022-07-04T06:01:44;23.00;98.20
26304;DHT22;57113;48.680;8.890;2022-07-04T06:04:10;23.00;98.20
26304;DHT22;57113;48.680;8.890;2022-07-04T06:06:36;23.00;98.30
26304;DHT22;57113;48.680;8.890;2022-07-04T06:09:02;23.00;98.20
26304;DHT22;57113;48.680;8.890;2022-07-04T06:11:28;22.90;98.10
26304;DHT22;57113;48.680;8.890;2022-07-04T06:13:55;23.00;98.20
26304;DHT22;57113;48.680;8.890;2022-07-04T06:16:20;22.90;98.20
26304;DHT22;57113;48.680;8.890;2022-07-04T06:18:46;22.80;97.00
26304;DHT22;57113;48.680;8.890;2022-07-04T06:21:12;22.60;97.50
26304;DHT22;57113;48.680;8.890;2022-07-04T06:23:38;22.50;97.80
26304;DHT22;57113;48.680;8.890;2022-07-04T06:26:04;22.50;98.00
26304;DHT22;57113;48.680;8.890;2022-07-04T06:28:29;22.50;98.10
26304;DHT22;57113;48.680;8.890;2022-07-04T06:30:56;22.60;98.20
26304;DHT22;57113;48.680;8.890;2022-07-04T06:33:21;22.60;98.10
26304;DHT22;57113;48.680;8.890;2022-07-04T06:35:47;22.60;98.10
26304;DHT22;57113;48.680;8.890;2022-07-04T06:38:24;22.70;98.10
26304;DHT22;57113;48.680;8.890;2022-07-04T06:40:58;22.70;98.10
26304;DHT22;57113;48.680;8.890;2022-07-04T06:43:25;22.70;98.00
26304;DHT22;57113;48.680;8.890;2022-07-04T06:45:52;22.70;98.10
26304;DHT22;57113;48.680;8.890;2022-07-04T06:48:18;22.70;98.00
26304;DHT22;57113;48.680;8.890;2022-07-04T06:50:45;22.80;98.00
26304;DHT22;57113;48.680;8.890;2022-07-04T06:53:10;22.80;98.10
26304;DHT22;57113;48.680;8.890;2022-07-04T06:55:40;22.80;98.10
26304;DHT22;57113;48.680;8.890;2022-07-04T06:58:07;22.80;98.20
26304;DHT22;57113;48.680;8.890;2022-07-04T07:00:34;22.80;98.20
26304;DHT22;57113;48.680;8.890;2022-07-04T07:03:00;22.80;98.20
26304;DHT22;57113;48.680;8.890;2022-07-04T07:05:27;22.80;98.20
26304;DHT22;57113;48.680;8.890;2022-07-04T07:07:53;22.80;98.10
26304;DHT22;57113;48.680;8.890;2022-07-04T07:10:20;22.90;98.20
26304;DHT22;57113;48.680;8.890;2022-07-04T07:12:46;22.90;98.20
26304;DHT22;57113;48.680;8.890;2022-07-04T07:15:11;22.80;97.60
26304;DHT22;57113;48.680;8.890;2022-07-04T07:17:39;22.70;97.80
26304;DHT22;57113;48.680;8.890;2022-07-04T07:20:05;22.70;97.40
26304;DHT22;57113;48.680;8.890;2022-07-04T07:22:31;22.60;97.70
26304;DHT22;57113;48.680;8.890;2022-07-04T07:24:57;22.60;97.80
26304;DHT22;57113;48.680;8.890;2022-07-04T07:27:22;22.60;97.80
26304;DHT22;57113;48.680;8.890;2022-07-04T07:29:48;22.70;97.80
26304;DHT22;57113;48.680;8.890;2022-07-04T07:32:14;22.70;97.80
26304;DHT22;57113;48.680;8.890;2022-07-04T07:34:40;22.70;97.80
26304;DHT22;57113;48.680;8.890;2022-07-04T07:37:06;22.80;97.90
26304;DHT22;57113;48.680;8.890;2022-07-04T07:39:32;22.80;97.90
26304;DHT22;57113;48.680;8.890;2022-07-04T07:41:57;22.80;97.80
26304;DHT22;57113;48.680;8.890;2022-07-04T07:44:23;22.90;97.90
26304;DHT22;57113;48.680;8.890;2022-07-04T07:46:49;22.90;97.90
26304;DHT22;57113;48.680;8.890;2022-07-04T07:49:14;22.90;97.90
26304;DHT22;57113;48.680;8.890;2022-07-04T07:51:40;22.90;97.90
26304;DHT22;57113;48.680;8.890;2022-07-04T07:54:06;22.90;97.90
26304;DHT22;57113;48.680;8.890;2022-07-04T07:56:32;22.90;97.90
26304;DHT22;57113;48.680;8.890;2022-07-04T07:58:57;22.90;97.90
26304;DHT22;57113;48.680;8.890;2022-07-04T08:01:23;22.90;97.90
26304;DHT22;57113;48.680;8.890;2022-07-04T08:03:49;22.90;97.90
26304;DHT22;57113;48.680;8.890;2022-07-04T08:06:33;23.00;97.90
26304;DHT22;57113;48.680;8.890;2022-07-04T08:08:59;23.00;98.00
26304;DHT22;57113;48.680;8.890;2022-07-04T08:11:25;23.00;98.00
26304;DHT22;57113;48.680;8.890;2022-07-04T08:13:51;22.90;97.90
26304;DHT22;57113;48.680;8.890;2022-07-04T08:16:17;23.00;98.00
26304;DHT22;57113;48.680;8.890;2022-07-04T08:18:43;23.00;98.00
26304;DHT22;57113;48.680;8.890;2022-07-04T08:21:09;23.00;98.00
26304;DHT22;57113;48.680;8.890;2022-07-04T08:23:35;23.00;98.00
26304;DHT22;57113;48.680;8.890;2022-07-04T08:26:02;23.00;98.00
26304;DHT22;57113;48.680;8.890;2022-07-04T08:28:29;23.00;98.10
26304;DHT22;57113;48.680;8.890;2022-07-04T08:30:56;22.90;98.10
26304;DHT22;57113;48.680;8.890;2022-07-04T08:33:22;23.00;98.00
26304;DHT22;57113;48.680;8.890;2022-07-04T08:35:48;23.00;98.10
26304;DHT22;57113;48.680;8.890;2022-07-04T08:38:15;23.00;98.10
26304;DHT22;57113;48.680;8.890;2022-07-04T08:40:41;23.00;98.10
26304;DHT22;57113;48.680;8.890;2022-07-04T08:43:07;23.00;98.00
26304;DHT22;57113;48.680;8.890;2022-07-04T08:45:34;23.00;98.10
26304;DHT22;57113;48.680;8.890;2022-07-04T08:48:06;23.00;98.10
26304;DHT22;57113;48.680;8.890;2022-07-04T08:50:38;23.00;98.00
26304;DHT22;57113;48.680;8.890;2022-07-04T08:53:15;23.10;98.10
26304;DHT22;57113;48.680;8.890;2022-07-04T08:55:45;23.10;98.10
26304;DHT22;57113;48.680;8.890;2022-07-04T08:58:30;23.10;98.10
26304;DHT22;57113;48.680;8.890;2022-07-04T09:01:04;23.10;98.10
26304;DHT22;57113;48.680;8.890;2022-07-04T09:03:31;23.10;98.10
26304;DHT22;57113;48.680;8.890;2022-07-04T09:05:57;23.10;98.10
26304;DHT22;57113;48.680;8.890;2022-07-04T09:08:24;23.10;98.10
26304;DHT22;57113;48.680;8.890;2022-07-04T09:10:50;23.10;98.10
26304;DHT22;57113;48.680;8.890;2022-07-04T09:13:17;23.10;98.10
26304;DHT22;57113;48.680;8.890;2022-07-04T09:15:45;23.10;98.10
26304;DHT22;57113;48.680;8.890;2022-07-04T09:18:20;23.10;98.10
26304;DHT22;57113;48.680;8.890;2022-07-04T09:20:46;23.10;98.10
26304;DHT22;57113;48.680;8.890;2022-07-04T09:23:25;23.10;98.00
26304;DHT22;57113;48.680;8.890;2022-07-04T09:28:37;23.20;98.00
26304;DHT22;57113;48.680;8.890;2022-07-04T09:31:16;23.20;98.00
26304;DHT22;57113;48.680;8.890;2022-07-04T09:33:51;23.30;98.00
26304;DHT22;57113;48.680;8.890;2022-07-04T09:36:21;23.30;97.90
26304;DHT22;57113;48.680;8.890;2022-07-04T09:39:08;23.40;97.80
26304;DHT22;57113;48.680;8.890;2022-07-04T09:42:09;23.40;97.80
26304;DHT22;57113;48.680;8.890;2022-07-04T09:44:45;23.40;97.80
26304;DHT22;57113;48.680;8.890;2022-07-04T09:47:27;23.40;97.60
26304;DHT22;57113;48.680;8.890;2022-07-04T09:50:01;23.40;97.60
26304;DHT22;57113;48.680;8.890;2022-07-04T09:52:26;23.50;97.60
26304;DHT22;57113;48.680;8.890;2022-07-04T09:54:59;23.50;97.60
26304;DHT22;57113;48.680;8.890;2022-07-04T09:57:25;23.50;97.50
26304;DHT22;57113;48.680;8.890;2022-07-04T09:59:51;23.50;97.50
26304;DHT22;57113;48.680;8.890;2022-07-04T10:02:16;23.50;97.30
26304;DHT22;57113;48.680;8.890;2022-07-04T10:07:09;23.60;97.30
26304;DHT22;57113;48.680;8.890;2022-07-04T10:09:34;23.50;97.30
26304;DHT22;57113;48.680;8.890;2022-07-04T10:12:01;23.60;97.30
26304;DHT22;57113;48.680;8.890;2022-07-04T10:14:27;23.60;97.30
26304;DHT22;57113;48.680;8.890;2022-07-04T10:16:53;23.60;97.30
26304;DHT22;57113;48.680;8.890;2022-07-04T10:19:19;23.60;97.10
26304;DHT22;57113;48.680;8.890;2022-07-04T10:21:46;23.70;97.10
26304;DHT22;57113;48.680;8.890;2022-07-04T10:24:12;23.60;97.10
26304;DHT22;57113;48.680;8.890;2022-07-04T10:26:38;23.70;97.20
26304;DHT22;57113;48.680;8.890;2022-07-04T10:29:04;23.70;97.10
26304;DHT22;57113;48.680;8.890;2022-07-04T10:31:30;23.70;97.10
26304;DHT22;57113;48.680;8.890;2022-07-04T10:33:58;23.70;97.10
26304;DHT22;57113;48.680;8.890;2022-07-04T10:36:26;23.80;97.20
26304;DHT22;57113;48.680;8.890;2022-07-04T10:39:00;23.80;97.10
26304;DHT22;57113;48.680;8.890;2022-07-04T10:41:30;23.80;97.00
26304;DHT22;57113;48.680;8.890;2022-07-04T10:44:03;23.80;97.00
26304;DHT22;57113;48.680;8.890;2022-07-04T10:46:47;23.80;97.00
26304;DHT22;57113;48.680;8.890;2022-07-04T10:52:13;23.90;96.90
26304;DHT22;57113;48.680;8.890;2022-07-04T10:54:41;23.90;96.90
26304;DHT22;57113;48.680;8.890;2022-07-04T11:00:05;24.00;96.80
26304;DHT22;57113;48.680;8.890;2022-07-04T11:02:33;23.90;96.80
26304;DHT22;57113;48.680;8.890;2022-07-04T11:18:05;24.00;97.10
26304;DHT22;57113;48.680;8.890;2022-07-04T11:20:35;24.00;97.00
26304;DHT22;57113;48.680;8.890;2022-07-04T11:23:15;24.00;97.00
26304;DHT22;57113;48.680;8.890;2022-07-04T11:25:43;24.00;97.00
26304;DHT22;57113;48.680;8.890;2022-07-04T11:28:26;23.90;97.00
26304;DHT22;57113;48.680;8.890;2022-07-04T11:30:56;23.90;97.00
26304;DHT22;57113;48.680;8.890;2022-07-04T11:33:25;24.00;97.10
26304;DHT22;57113;48.680;8.890;2022-07-04T11:36:09;24.00;97.00
26304;DHT22;57113;48.680;8.890;2022-07-04T11:38:57;24.00;97.00
26304;DHT22;57113;48.680;8.890;2022-07-04T11:41:32;24.00;97.00
26304;DHT22;57113;48.680;8.890;2022-07-04T11:44:18;24.10;96.90
26304;DHT22;57113;48.680;8.890;2022-07-04T11:47:22;24.10;96.90
26304;DHT22;57113;48.680;8.890;2022-07-04T11:49:53;24.10;96.90
26304;DHT22;57113;48.680;8.890;2022-07-04T11:52:57;24.20;96.80
26304;DHT22;57113;48.680;8.890;2022-07-04T11:55:19;24.20;96.80
26304;DHT22;57113;48.680;8.890;2022-07-04T11:57:47;24.20;96.80
26304;DHT22;57113;48.680;8.890;2022-07-04T12:00:18;24.30;96.70
26304;DHT22;57113;48.680;8.890;2022-07-04T12:02:48;24.30;96.70
26304;DHT22;57113;48.680;8.890;2022-07-04T12:05:16;24.40;96.60
26304;DHT22;57113;48.680;8.890;2022-07-04T12:07:43;24.40;96.60
26304;DHT22;57113;48.680;8.890;2022-07-04T12:10:12;24.40;96.60
26304;DHT22;57113;48.680;8.890;2022-07-04T12:12:58;24.40;96.60
26304;DHT22;57113;48.680;8.890;2022-07-04T12:15:35;24.40;96.60
26304;DHT22;57113;48.680;8.890;2022-07-04T12:18:01;24.40;96.60
26304;DHT22;57113;48.680;8.890;2022-07-04T12:20:27;24.40;96.60
26304;DHT22;57113;48.680;8.890;2022-07-04T12:22:55;24.40;96.60
26304;DHT22;57113;48.680;8.890;2022-07-04T12:28:07;24.30;96.60
26304;DHT22;57113;48.680;8.890;2022-07-04T12:30:52;24.30;96.60
26304;DHT22;57113;48.680;8.890;2022-07-04T12:33:20;24.30;96.50
26304;DHT22;57113;48.680;8.890;2022-07-04T12:38:17;24.40;96.60
26304;DHT22;57113;48.680;8.890;2022-07-04T12:41:10;24.50;96.50
26304;DHT22;57113;48.680;8.890;2022-07-04T12:46:07;24.50;96.30
26304;DHT22;57113;48.680;8.890;2022-07-04T12:48:34;24.60;96.30
26304;DHT22;57113;48.680;8.890;2022-07-04T12:53:41;24.70;96.10
26304;DHT22;57113;48.680;8.890;2022-07-04T12:56:07;24.70;96.10
26304;DHT22;57113;48.680;8.890;2022-07-04T12:58:34;24.70;96.10
26304;DHT22;57113;48.680;8.890;2022-07-04T13:01:00;24.80;96.00
26304;DHT22;57113;48.680;8.890;2022-07-04T13:03:26;24.80;95.90
26304;DHT22;57113;48.680;8.890;2022-07-04T13:05:51;24.90;95.80
26304;DHT22;57113;48.680;8.890;2022-07-04T13:08:17;24.90;95.90
26304;DHT22;57113;48.680;8.890;2022-07-04T13:10:43;24.90;95.70
26304;DHT22;57113;48.680;8.890;2022-07-04T13:13:09;25.00;95.70
26304;DHT22;57113;48.680;8.890;2022-07-04T13:15:35;25.10;95.60
26304;DHT22;57113;48.680;8.890;2022-07-04T13:18:00;25.10;95.60
26304;DHT22;57113;48.680;8.890;2022-07-04T13:20:27;25.10;95.70
26304;DHT22;57113;48.680;8.890;2022-07-04T13:22:53;25.00;95.70
26304;DHT22;57113;48.680;8.890;2022-07-04T13:25:18;24.90;95.80
26304;DHT22;57113;48.680;8.890;2022-07-04T13:27:44;24.90;95.80
26304;DHT22;57113;48.680;8.890;2022-07-04T13:30:11;25.10;95.60
26304;DHT22;57113;48.680;8.890;2022-07-04T13:32:37;25.40;95.40
26304;DHT22;57113;48.680;8.890;2022-07-04T13:35:03;25.60;95.30
26304;DHT22;57113;48.680;8.890;2022-07-04T13:37:29;25.70;94.80
26304;DHT22;57113;48.680;8.890;2022-07-04T13:39:55;25.80;94.70
26304;DHT22;57113;48.680;8.890;2022-07-04T13:42:21;26.00;94.60
26304;DHT22;57113;48.680;8.890;2022-07-04T13:45:06;26.00;94.40
26304;DHT22;57113;48.680;8.890;2022-07-04T13:47:32;26.00;94.50
26304;DHT22;57113;48.680;8.890;2022-07-04T13:49:58;26.00;94.60
26304;DHT22;57113;48.680;8.890;2022-07-04T13:52:24;25.80;94.50
26304;DHT22;57113;48.680;8.890;2022-07-04T13:54:50;25.70;94.80
26304;DHT22;57113;48.680;8.890;2022-07-04T13:57:15;25.60;94.90
26304;DHT22;57113;48.680;8.890;2022-07-04T13:59:41;25.50;95.10
26304;DHT22;57113;48.680;8.890;2022-07-04T14:02:07;25.50;95.10
26304;DHT22;57113;48.680;8.890;2022-07-04T14:04:32;25.50;95.20
26304;DHT22;57113;48.680;8.890;2022-07-04T14:06:59;25.40;95.20
26304;DHT22;57113;48.680;8.890;2022-07-04T14:09:26;25.30;95.30
26304;DHT22;57113;48.680;8.890;2022-07-04T14:11:51;25.20;95.40
26304;DHT22;57113;48.680;8.890;2022-07-04T14:14:17;25.20;95.60
26304;DHT22;57113;48.680;8.890;2022-07-04T14:16:43;25.00;95.70
26304;DHT22;57113;48.680;8.890;2022-07-04T14:19:08;25.00;96.00
26304;DHT22;57113;48.680;8.890;2022-07-04T14:21:34;24.90;96.00
26304;DHT22;57113;48.680;8.890;2022-07-04T14:23:59;24.80;96.20
26304;DHT22;57113;48.680;8.890;2022-07-04T14:26:25;24.80;96.30
26304;DHT22;57113;48.680;8.890;2022-07-04T14:28:51;24.70;96.40
26304;DHT22;57113;48.680;8.890;2022-07-04T14:31:18;24.60;96.50
26304;DHT22;57113;48.680;8.890;2022-07-04T14:33:43;24.60;96.60
26304;DHT22;57113;48.680;8.890;2022-07-04T14:36:09;24.50;96.70
26304;DHT22;57113;48.680;8.890;2022-07-04T14:38:38;24.50;96.70
26304;DHT22;57113;48.680;8.890;2022-07-04T14:41:04;24.50;96.80
26304;DHT22;57113;48.680;8.890;2022-07-04T14:43:40;24.50;96.80
26304;DHT22;57113;48.680;8.890;2022-07-04T14:46:06;24.50;96.80
26304;DHT22;57113;48.680;8.890;2022-07-04T14:48:32;24.50;96.90
26304;DHT22;57113;48.680;8.890;2022-07-04T14:50:58;24.50;96.90
26304;DHT22;57113;48.680;8.890;2022-07-04T14:53:25;24.50;97.00
26304;DHT22;57113;48.680;8.890;2022-07-04T14:55:51;24.50;97.10
26304;DHT22;57113;48.680;8.890;2022-07-04T14:58:16;24.40;97.10
26304;DHT22;57113;48.680;8.890;2022-07-04T15:00:42;24.40;97.10
26304;DHT22;57113;48.680;8.890;2022-07-04T15:03:08;24.40;97.00
26304;DHT22;57113;48.680;8.890;2022-07-04T15:05:34;24.50;97.10
26304;DHT22;57113;48.680;8.890;2022-07-04T15:07:59;24.50;97.10
26304;DHT22;57113;48.680;8.890;2022-07-04T15:10:25;24.50;97.00
26304;DHT22;57113;48.680;8.890;2022-07-04T15:12:51;24.60;97.00
26304;DHT22;57113;48.680;8.890;2022-07-04T15:15:17;24.80;96.80
26304;DHT22;57113;48.680;8.890;2022-07-04T15:17:42;24.80;96.60
26304;DHT22;57113;48.680;8.890;2022-07-04T15:20:09;24.90;96.60
26304;DHT22;57113;48.680;8.890;2022-07-04T15:22:53;24.90;96.50
26304;DHT22;57113;48.680;8.890;2022-07-04T15:25:37;24.90;96.50
26304;DHT22;57113;48.680;8.890;2022-07-04T15:28:03;24.90;96.60
26304;DHT22;57113;48.680;8.890;2022-07-04T15:30:28;24.80;96.60
26304;DHT22;57113;48.680;8.890;2022-07-04T15:32:54;24.80;96.70
26304;DHT22;57113;48.680;8.890;2022-07-04T15:35:20;24.70;96.80
26304;DHT22;57113;48.680;8.890;2022-07-04T15:37:46;24.70;96.90
26304;DHT22;57113;48.680;8.890;2022-07-04T15:40:11;24.60;96.90
26304;DHT22;57113;48.680;8.890;2022-07-04T15:42:37;24.60;97.30
26304;DHT22;57113;48.680;8.890;2022-07-04T15:45:03;24.60;97.10
26304;DHT22;57113;48.680;8.890;2022-07-04T15:47:29;24.60;97.10
26304;DHT22;57113;48.680;8.890;2022-07-04T15:49:55;24.50;97.10
26304;DHT22;57113;48.680;8.890;2022-07-04T15:52:20;24.60;97.20
26304;DHT22;57113;48.680;8.890;2022-07-04T15:54:48;24.70;96.80
26304;DHT22;57113;48.680;8.890;2022-07-04T15:57:14;24.80;96.70
26304;DHT22;57113;48.680;8.890;2022-07-04T15:59:40;24.80;96.50
26304;DHT22;57113;48.680;8.890;2022-07-04T16:02:06;24.90;96.60
26304;DHT22;57113;48.680;8.890;2022-07-04T16:04:32;24.80;96.70
26304;DHT22;57113;48.680;8.890;2022-07-04T16:06:58;24.80;96.80